sensor_id;sensor_type;location;lat;lon;timestamp;temperature;humidity
66928;DHT22;59882;45.624;11.698;2022-10-31T00:02:08;15.40;76.40
66928;DHT22;59882;45.624;11.698;2022-10-31T00:04:33;15.40;76.20
66928;DHT22;59882;45.624;11.698;2022-10-31T00:06:59;15.40;76.30
66928;DHT22;59882;45.624;11.698;2022-10-31T00:09:24;15.30;76.50
66928;DHT22;59882;45.624;11.698;2022-10-31T00:11:50;15.30;76.40
66928;DHT22;59882;45.624;11.698;2022-10-31T00:14:16;15.30;76.60
66928;DHT22;59882;45.624;11.698;2022-10-31T00:16:41;15.30;76.40
66928;DHT22;59882;45.624;11.698;2022-10-31T00:19:07;15.30;76.50
66928;DHT22;59882;45.624;11.698;2022-10-31T00:21:34;15.30;76.30
66928;DHT22;59882;45.624;11.698;2022-10-31T00:24:00;15.30;75.90
66928;DHT22;59882;45.624;11.698;2022-10-31T00:26:30;15.30;76.20
66928;DHT22;59882;45.624;11.698;2022-10-31T00:28:57;15.30;76.10
66928;DHT22;59882;45.624;11.698;2022-10-31T00:31:23;15.30;76.20
66928;DHT22;59882;45.624;11.698;2022-10-31T00:33:49;15.30;76.10
66928;DHT22;59882;45.624;11.698;2022-10-31T00:36:16;15.30;75.90
66928;DHT22;59882;45.624;11.698;2022-10-31T00:38:43;15.30;76.00
66928;DHT22;59882;45.624;11.698;2022-10-31T00:41:13;15.20;75.90
66928;DHT22;59882;45.624;11.698;2022-10-31T00:43:39;15.20;75.90
66928;DHT22;59882;45.624;11.698;2022-10-31T00:46:05;15.10;75.90
66928;DHT22;59882;45.624;11.698;2022-10-31T00:48:30;15.10;75.50
66928;DHT22;59882;45.624;11.698;2022-10-31T00:50:56;15.10;75.80
66928;DHT22;59882;45.624;11.698;2022-10-31T00:53:22;15.10;75.90
66928;DHT22;59882;45.624;11.698;2022-10-31T00:55:48;15.10;75.80
66928;DHT22;59882;45.624;11.698;2022-10-31T00:58:14;15.10;75.70
66928;DHT22;59882;45.624;11.698;2022-10-31T01:00:39;15.10;75.80
66928;DHT22;59882;45.624;11.698;2022-10-31T01:03:05;15.10;75.70
66928;DHT22;59882;45.624;11.698;2022-10-31T01:05:31;15.10;75.60
66928;DHT22;59882;45.624;11.698;2022-10-31T01:07:56;15.10;75.60
66928;DHT22;59882;45.624;11.698;2022-10-31T01:10:22;15.00;75.70
66928;DHT22;59882;45.624;11.698;2022-10-31T01:12:49;15.00;75.60
66928;DHT22;59882;45.624;11.698;2022-10-31T01:15:17;14.90;75.60
66928;DHT22;59882;45.624;11.698;2022-10-31T01:17:43;14.90;75.60
66928;DHT22;59882;45.624;11.698;2022-10-31T01:20:10;14.90;75.70
66928;DHT22;59882;45.624;11.698;2022-10-31T01:22:36;15.00;75.70
66928;DHT22;59882;45.624;11.698;2022-10-31T01:25:02;15.00;75.70
66928;DHT22;59882;45.624;11.698;2022-10-31T01:27:28;14.90;75.60
66928;DHT22;59882;45.624;11.698;2022-10-31T01:29:53;14.90;75.80
66928;DHT22;59882;45.624;11.698;2022-10-31T01:32:19;14.90;75.80
66928;DHT22;59882;45.624;11.698;2022-10-31T01:34:45;14.90;75.50
66928;DHT22;59882;45.624;11.698;2022-10-31T01:37:10;14.90;75.40
66928;DHT22;59882;45.624;11.698;2022-10-31T01:39:36;14.80;75.20
66928;DHT22;59882;45.624;11.698;2022-10-31T01:42:01;14.80;75.10
66928;DHT22;59882;45.624;11.698;2022-10-31T01:46:59;14.70;75.90
66928;DHT22;59882;45.624;11.698;2022-10-31T01:49:42;14.70;76.00
66928;DHT22;59882;45.624;11.698;2022-10-31T01:52:18;14.60;76.40
66928;DHT22;59882;45.624;11.698;2022-10-31T01:54:49;14.50;76.60
66928;DHT22;59882;45.624;11.698;2022-10-31T01:57:17;14.40;76.60
66928;DHT22;59882;45.624;11.698;2022-10-31T01:59:47;14.40;76.40
66928;DHT22;59882;45.624;11.698;2022-10-31T02:02:16;14.40;76.50
66928;DHT22;59882;45.624;11.698;2022-10-31T02:04:42;14.30;76.60
66928;DHT22;59882;45.624;11.698;2022-10-31T02:07:14;14.30;76.40
66928;DHT22;59882;45.624;11.698;2022-10-31T02:09:42;14.40;76.60
66928;DHT22;59882;45.624;11.698;2022-10-31T02:12:10;14.30;76.30
66928;DHT22;59882;45.624;11.698;2022-10-31T02:14:36;14.40;76.50
66928;DHT22;59882;45.624;11.698;2022-10-31T02:17:03;14.40;76.40
66928;DHT22;59882;45.624;11.698;2022-10-31T02:19:56;14.40;76.50
66928;DHT22;59882;45.624;11.698;2022-10-31T02:25:33;14.40;76.50
66928;DHT22;59882;45.624;11.698;2022-10-31T02:33:42;14.30;76.40
66928;DHT22;59882;45.624;11.698;2022-10-31T02:36:30;14.20;76.30
66928;DHT22;59882;45.624;11.698;2022-10-31T02:39:39;14.20;76.30
66928;DHT22;59882;45.624;11.698;2022-10-31T02:42:17;14.30;76.20
66928;DHT22;59882;45.624;11.698;2022-10-31T02:47:48;14.20;76.30
66928;DHT22;59882;45.624;11.698;2022-10-31T02:50:28;14.10;76.20
66928;DHT22;59882;45.624;11.698;2022-10-31T02:52:55;14.10;76.30
66928;DHT22;59882;45.624;11.698;2022-10-31T02:57:56;14.00;76.50
66928;DHT22;59882;45.624;11.698;2022-10-31T03:00:22;14.00;76.40
66928;DHT22;59882;45.624;11.698;2022-10-31T03:08:35;14.10;76.80
66928;DHT22;59882;45.624;11.698;2022-10-31T03:11:05;14.10;76.60
66928;DHT22;59882;45.624;11.698;2022-10-31T03:19:16;14.00;76.70
66928;DHT22;59882;45.624;11.698;2022-10-31T03:21:29;14.00;76.50
66928;DHT22;59882;45.624;11.698;2022-10-31T03:23:56;14.00;76.70
66928;DHT22;59882;45.624;11.698;2022-10-31T03:26:23;14.00;76.40
66928;DHT22;59882;45.624;11.698;2022-10-31T03:29:06;14.00;76.40
66928;DHT22;59882;45.624;11.698;2022-10-31T03:31:55;13.90;76.20
66928;DHT22;59882;45.624;11.698;2022-10-31T03:34:22;13.90;76.20
66928;DHT22;59882;45.624;11.698;2022-10-31T03:36:54;13.90;76.00
66928;DHT22;59882;45.624;11.698;2022-10-31T03:39:22;13.90;75.90
66928;DHT22;59882;45.624;11.698;2022-10-31T03:41:57;13.90;75.90
66928;DHT22;59882;45.624;11.698;2022-10-31T03:44:26;13.90;75.90
66928;DHT22;59882;45.624;11.698;2022-10-31T03:46:53;14.00;75.90
66928;DHT22;59882;45.624;11.698;2022-10-31T03:49:19;14.00;76.00
66928;DHT22;59882;45.624;11.698;2022-10-31T03:51:57;13.90;75.90
66928;DHT22;59882;45.624;11.698;2022-10-31T03:54:40;14.00;75.70
66928;DHT22;59882;45.624;11.698;2022-10-31T03:58:14;14.00;75.50
66928;DHT22;59882;45.624;11.698;2022-10-31T04:00:09;13.90;75.60
66928;DHT22;59882;45.624;11.698;2022-10-31T04:02:41;13.90;75.70
66928;DHT22;59882;45.624;11.698;2022-10-31T04:05:09;13.90;75.40
66928;DHT22;59882;45.624;11.698;2022-10-31T04:07:41;13.90;75.40
66928;DHT22;59882;45.624;11.698;2022-10-31T04:10:10;13.90;75.30
66928;DHT22;59882;45.624;11.698;2022-10-31T04:12:38;13.90;75.20
66928;DHT22;59882;45.624;11.698;2022-10-31T04:15:06;13.90;75.20
66928;DHT22;59882;45.624;11.698;2022-10-31T04:17:36;13.80;75.40
66928;DHT22;59882;45.624;11.698;2022-10-31T04:20:04;13.70;75.60
66928;DHT22;59882;45.624;11.698;2022-10-31T04:22:30;13.70;75.80
66928;DHT22;59882;45.624;11.698;2022-10-31T04:24:56;13.60;75.80
66928;DHT22;59882;45.624;11.698;2022-10-31T04:27:22;13.60;75.80
66928;DHT22;59882;45.624;11.698;2022-10-31T04:29:47;13.50;75.90
66928;DHT22;59882;45.624;11.698;2022-10-31T04:32:13;13.50;75.90
66928;DHT22;59882;45.624;11.698;2022-10-31T04:34:38;13.50;75.90
66928;DHT22;59882;45.624;11.698;2022-10-31T04:37:04;13.40;76.00
66928;DHT22;59882;45.624;11.698;2022-10-31T04:39:30;13.40;76.00
66928;DHT22;59882;45.624;11.698;2022-10-31T04:41:55;13.40;76.10
66928;DHT22;59882;45.624;11.698;2022-10-31T04:44:21;13.40;76.50
66928;DHT22;59882;45.624;11.698;2022-10-31T04:46:46;13.30;76.70
66928;DHT22;59882;45.624;11.698;2022-10-31T04:49:12;13.30;76.70
66928;DHT22;59882;45.624;11.698;2022-10-31T04:51:38;13.30;76.80
66928;DHT22;59882;45.624;11.698;2022-10-31T04:54:04;13.40;76.80
66928;DHT22;59882;45.624;11.698;2022-10-31T04:56:29;13.30;76.80
66928;DHT22;59882;45.624;11.698;2022-10-31T04:58:55;13.30;76.90
66928;DHT22;59882;45.624;11.698;2022-10-31T05:01:21;13.30;76.70
66928;DHT22;59882;45.624;11.698;2022-10-31T05:03:46;13.30;76.80
66928;DHT22;59882;45.624;11.698;2022-10-31T05:06:12;13.30;76.70
66928;DHT22;59882;45.624;11.698;2022-10-31T05:08:38;13.30;76.80
66928;DHT22;59882;45.624;11.698;2022-10-31T05:11:04;13.30;76.80
66928;DHT22;59882;45.624;11.698;2022-10-31T05:13:30;13.30;76.90
66928;DHT22;59882;45.624;11.698;2022-10-31T05:15:56;13.20;77.10
66928;DHT22;59882;45.624;11.698;2022-10-31T05:18:22;13.20;77.00
66928;DHT22;59882;45.624;11.698;2022-10-31T05:20:47;13.20;76.90
66928;DHT22;59882;45.624;11.698;2022-10-31T05:23:13;13.20;77.00
66928;DHT22;59882;45.624;11.698;2022-10-31T05:25:40;13.20;77.60
66928;DHT22;59882;45.624;11.698;2022-10-31T05:28:06;13.10;77.50
66928;DHT22;59882;45.624;11.698;2022-10-31T05:30:33;13.20;77.60
66928;DHT22;59882;45.624;11.698;2022-10-31T05:32:59;13.20;77.70
66928;DHT22;59882;45.624;11.698;2022-10-31T05:35:30;13.20;77.50
66928;DHT22;59882;45.624;11.698;2022-10-31T05:37:56;13.10;77.60
66928;DHT22;59882;45.624;11.698;2022-10-31T05:40:26;13.10;77.60
66928;DHT22;59882;45.624;11.698;2022-10-31T05:42:53;13.10;77.30
66928;DHT22;59882;45.624;11.698;2022-10-31T05:45:19;13.10;77.60
66928;DHT22;59882;45.624;11.698;2022-10-31T05:47:54;13.10;77.50
66928;DHT22;59882;45.624;11.698;2022-10-31T05:50:21;13.10;77.50
66928;DHT22;59882;45.624;11.698;2022-10-31T05:52:47;13.10;77.60
66928;DHT22;59882;45.624;11.698;2022-10-31T05:55:18;13.10;77.70
66928;DHT22;59882;45.624;11.698;2022-10-31T05:57:44;13.10;77.60
66928;DHT22;59882;45.624;11.698;2022-10-31T06:00:10;13.10;77.60
66928;DHT22;59882;45.624;11.698;2022-10-31T06:02:36;13.10;77.60
66928;DHT22;59882;45.624;11.698;2022-10-31T06:05:02;13.20;77.50
66928;DHT22;59882;45.624;11.698;2022-10-31T06:07:32;13.10;77.60
66928;DHT22;59882;45.624;11.698;2022-10-31T06:09:58;13.20;77.50
66928;DHT22;59882;45.624;11.698;2022-10-31T06:12:24;13.20;77.50
66928;DHT22;59882;45.624;11.698;2022-10-31T06:14:49;13.20;77.40
66928;DHT22;59882;45.624;11.698;2022-10-31T06:17:15;13.20;77.40
66928;DHT22;59882;45.624;11.698;2022-10-31T06:19:41;13.20;77.30
66928;DHT22;59882;45.624;11.698;2022-10-31T06:22:06;13.20;77.20
66928;DHT22;59882;45.624;11.698;2022-10-31T06:24:32;13.20;77.30
66928;DHT22;59882;45.624;11.698;2022-10-31T06:26:58;13.20;77.30
66928;DHT22;59882;45.624;11.698;2022-10-31T06:29:23;13.20;77.40
66928;DHT22;59882;45.624;11.698;2022-10-31T06:31:51;13.20;77.50
66928;DHT22;59882;45.624;11.698;2022-10-31T06:34:17;13.20;77.50
66928;DHT22;59882;45.624;11.698;2022-10-31T06:36:42;13.20;77.60
66928;DHT22;59882;45.624;11.698;2022-10-31T06:39:08;13.30;77.70
66928;DHT22;59882;45.624;11.698;2022-10-31T06:41:33;13.30;77.70
66928;DHT22;59882;45.624;11.698;2022-10-31T06:44:02;13.30;77.80
66928;DHT22;59882;45.624;11.698;2022-10-31T06:46:27;13.40;77.80
66928;DHT22;59882;45.624;11.698;2022-10-31T06:48:53;13.40;77.80
66928;DHT22;59882;45.624;11.698;2022-10-31T06:51:19;13.40;77.70
66928;DHT22;59882;45.624;11.698;2022-10-31T06:53:44;13.40;77.60
66928;DHT22;59882;45.624;11.698;2022-10-31T06:56:10;13.50;77.60
66928;DHT22;59882;45.624;11.698;2022-10-31T06:58:36;13.50;77.60
66928;DHT22;59882;45.624;11.698;2022-10-31T07:01:01;13.60;77.60
66928;DHT22;59882;45.624;11.698;2022-10-31T07:03:27;13.60;77.40
66928;DHT22;59882;45.624;11.698;2022-10-31T07:05:55;13.70;77.40
66928;DHT22;59882;45.624;11.698;2022-10-31T07:08:22;13.70;77.50
66928;DHT22;59882;45.624;11.698;2022-10-31T07:10:52;13.80;77.40
66928;DHT22;59882;45.624;11.698;2022-10-31T07:13:18;13.80;77.50
66928;DHT22;59882;45.624;11.698;2022-10-31T07:15:43;13.90;77.30
66928;DHT22;59882;45.624;11.698;2022-10-31T07:18:11;13.90;77.20
66928;DHT22;59882;45.624;11.698;2022-10-31T07:20:36;14.00;77.40
66928;DHT22;59882;45.624;11.698;2022-10-31T07:23:03;14.10;77.50
66928;DHT22;59882;45.624;11.698;2022-10-31T07:25:29;14.10;77.50
66928;DHT22;59882;45.624;11.698;2022-10-31T07:27:55;14.10;77.60
66928;DHT22;59882;45.624;11.698;2022-10-31T07:30:20;14.10;77.20
66928;DHT22;59882;45.624;11.698;2022-10-31T07:32:48;14.20;77.20
66928;DHT22;59882;45.624;11.698;2022-10-31T07:35:16;14.30;77.00
66928;DHT22;59882;45.624;11.698;2022-10-31T07:37:42;14.30;77.00
66928;DHT22;59882;45.624;11.698;2022-10-31T07:40:09;14.40;76.90
66928;DHT22;59882;45.624;11.698;2022-10-31T07:42:39;14.40;76.70
66928;DHT22;59882;45.624;11.698;2022-10-31T07:45:06;14.40;76.50
66928;DHT22;59882;45.624;11.698;2022-10-31T07:47:43;14.40;76.60
66928;DHT22;59882;45.624;11.698;2022-10-31T07:50:12;14.50;76.60
66928;DHT22;59882;45.624;11.698;2022-10-31T07:52:38;14.50;76.50
66928;DHT22;59882;45.624;11.698;2022-10-31T07:55:04;14.60;76.70
66928;DHT22;59882;45.624;11.698;2022-10-31T07:57:30;14.60;76.70
66928;DHT22;59882;45.624;11.698;2022-10-31T07:59:56;14.70;76.60
66928;DHT22;59882;45.624;11.698;2022-10-31T08:02:22;14.80;76.60
66928;DHT22;59882;45.624;11.698;2022-10-31T08:04:48;14.80;76.60
66928;DHT22;59882;45.624;11.698;2022-10-31T08:07:13;14.90;76.70
66928;DHT22;59882;45.624;11.698;2022-10-31T08:09:39;14.90;76.80
66928;DHT22;59882;45.624;11.698;2022-10-31T08:12:05;14.90;76.70
66928;DHT22;59882;45.624;11.698;2022-10-31T08:14:30;15.00;76.40
66928;DHT22;59882;45.624;11.698;2022-10-31T08:16:56;15.10;76.20
66928;DHT22;59882;45.624;11.698;2022-10-31T08:19:22;15.20;76.10
66928;DHT22;59882;45.624;11.698;2022-10-31T08:21:51;15.20;76.00
66928;DHT22;59882;45.624;11.698;2022-10-31T08:24:17;15.20;75.80
66928;DHT22;59882;45.624;11.698;2022-10-31T08:26:43;15.30;75.80
66928;DHT22;59882;45.624;11.698;2022-10-31T08:29:08;15.40;75.70
66928;DHT22;59882;45.624;11.698;2022-10-31T08:31:34;15.40;75.80
66928;DHT22;59882;45.624;11.698;2022-10-31T08:34:00;15.50;75.70
66928;DHT22;59882;45.624;11.698;2022-10-31T08:36:27;15.60;75.40
66928;DHT22;59882;45.624;11.698;2022-10-31T08:38:53;15.70;75.80
66928;DHT22;59882;45.624;11.698;2022-10-31T08:41:18;15.80;76.00
66928;DHT22;59882;45.624;11.698;2022-10-31T08:43:44;15.90;76.30
66928;DHT22;59882;45.624;11.698;2022-10-31T08:46:10;15.90;75.20
66928;DHT22;59882;45.624;11.698;2022-10-31T08:48:35;16.00;75.30
66928;DHT22;59882;45.624;11.698;2022-10-31T08:51:01;16.10;75.00
66928;DHT22;59882;45.624;11.698;2022-10-31T08:53:27;16.20;74.90
66928;DHT22;59882;45.624;11.698;2022-10-31T08:55:55;16.30;75.10
66928;DHT22;59882;45.624;11.698;2022-10-31T08:58:21;16.30;74.80
66928;DHT22;59882;45.624;11.698;2022-10-31T09:00:50;16.40;74.20
66928;DHT22;59882;45.624;11.698;2022-10-31T09:03:34;16.40;72.00
66928;DHT22;59882;45.624;11.698;2022-10-31T09:06:02;16.50;72.10
66928;DHT22;59882;45.624;11.698;2022-10-31T09:08:32;16.60;71.80
66928;DHT22;59882;45.624;11.698;2022-10-31T09:10:58;16.70;71.50
66928;DHT22;59882;45.624;11.698;2022-10-31T09:13:24;16.70;71.10
66928;DHT22;59882;45.624;11.698;2022-10-31T09:15:50;16.80;70.60
66928;DHT22;59882;45.624;11.698;2022-10-31T09:18:18;16.90;69.60
66928;DHT22;59882;45.624;11.698;2022-10-31T09:20:45;16.90;69.80
66928;DHT22;59882;45.624;11.698;2022-10-31T09:23:14;17.00;69.70
66928;DHT22;59882;45.624;11.698;2022-10-31T09:25:40;17.10;69.80
66928;DHT22;59882;45.624;11.698;2022-10-31T09:28:08;17.20;68.90
66928;DHT22;59882;45.624;11.698;2022-10-31T09:30:35;17.30;67.20
66928;DHT22;59882;45.624;11.698;2022-10-31T09:33:06;17.40;64.20
66928;DHT22;59882;45.624;11.698;2022-10-31T09:35:32;17.40;64.40
66928;DHT22;59882;45.624;11.698;2022-10-31T09:37:59;17.50;64.70
66928;DHT22;59882;45.624;11.698;2022-10-31T09:40:41;17.60;64.20
66928;DHT22;59882;45.624;11.698;2022-10-31T09:51:37;18.00;62.50
66928;DHT22;59882;45.624;11.698;2022-10-31T09:54:32;18.10;63.40
66928;DHT22;59882;45.624;11.698;2022-10-31T09:56:59;18.20;63.90
66928;DHT22;59882;45.624;11.698;2022-10-31T09:59:31;18.30;64.70
66928;DHT22;59882;45.624;11.698;2022-10-31T10:02:51;18.30;64.00
66928;DHT22;59882;45.624;11.698;2022-10-31T10:04:59;18.40;64.10
66928;DHT22;59882;45.624;11.698;2022-10-31T10:24:07;18.90;63.40
66928;DHT22;59882;45.624;11.698;2022-10-31T10:26:40;19.00;62.70
66928;DHT22;59882;45.624;11.698;2022-10-31T10:29:31;19.10;62.20
66928;DHT22;59882;45.624;11.698;2022-10-31T10:32:03;19.20;61.90
66928;DHT22;59882;45.624;11.698;2022-10-31T10:34:45;19.30;61.70
66928;DHT22;59882;45.624;11.698;2022-10-31T10:39:48;19.40;58.10
66928;DHT22;59882;45.624;11.698;2022-10-31T10:42:16;19.40;57.20
66928;DHT22;59882;45.624;11.698;2022-10-31T10:45:26;19.50;58.30
66928;DHT22;59882;45.624;11.698;2022-10-31T10:48:16;19.60;57.80
66928;DHT22;59882;45.624;11.698;2022-10-31T10:50:48;19.80;56.90
66928;DHT22;59882;45.624;11.698;2022-10-31T10:56:40;19.90;56.80
66928;DHT22;59882;45.624;11.698;2022-10-31T10:59:13;20.00;58.40
66928;DHT22;59882;45.624;11.698;2022-10-31T11:01:41;20.20;59.30
66928;DHT22;59882;45.624;11.698;2022-10-31T11:04:26;20.30;59.30
66928;DHT22;59882;45.624;11.698;2022-10-31T11:07:04;20.40;58.80
66928;DHT22;59882;45.624;11.698;2022-10-31T11:09:30;20.60;59.80
66928;DHT22;59882;45.624;11.698;2022-10-31T11:11:57;20.70;60.40
66928;DHT22;59882;45.624;11.698;2022-10-31T11:14:23;20.80;58.10
66928;DHT22;59882;45.624;11.698;2022-10-31T11:16:54;20.90;58.00
66928;DHT22;59882;45.624;11.698;2022-10-31T11:19:28;21.10;57.80
66928;DHT22;59882;45.624;11.698;2022-10-31T11:21:54;21.20;56.60
66928;DHT22;59882;45.624;11.698;2022-10-31T11:24:37;21.30;56.30
66928;DHT22;59882;45.624;11.698;2022-10-31T11:27:14;21.40;56.20
66928;DHT22;59882;45.624;11.698;2022-10-31T11:29:40;21.50;55.00
66928;DHT22;59882;45.624;11.698;2022-10-31T11:32:22;21.70;56.10
66928;DHT22;59882;45.624;11.698;2022-10-31T11:34:51;21.80;56.20
66928;DHT22;59882;45.624;11.698;2022-10-31T11:37:41;21.90;55.30
66928;DHT22;59882;45.624;11.698;2022-10-31T11:40:22;22.10;54.80
66928;DHT22;59882;45.624;11.698;2022-10-31T11:42:50;22.30;54.30
66928;DHT22;59882;45.624;11.698;2022-10-31T11:45:33;22.40;54.60
66928;DHT22;59882;45.624;11.698;2022-10-31T11:48:01;22.60;55.00
66928;DHT22;59882;45.624;11.698;2022-10-31T11:50:34;22.70;54.70
66928;DHT22;59882;45.624;11.698;2022-10-31T11:53:00;22.90;54.90
66928;DHT22;59882;45.624;11.698;2022-10-31T11:55:38;23.00;55.30
66928;DHT22;59882;45.624;11.698;2022-10-31T11:58:22;23.30;54.70
66928;DHT22;59882;45.624;11.698;2022-10-31T12:00:54;23.60;54.50
66928;DHT22;59882;45.624;11.698;2022-10-31T12:08:36;27.00;45.30
66928;DHT22;59882;45.624;11.698;2022-10-31T12:19:14;31.40;39.20
66928;DHT22;59882;45.624;11.698;2022-10-31T12:27:17;33.50;34.10
66928;DHT22;59882;45.624;11.698;2022-10-31T12:35:44;35.10;32.70
66928;DHT22;59882;45.624;11.698;2022-10-31T12:41:07;35.70;32.90
66928;DHT22;59882;45.624;11.698;2022-10-31T12:46:15;36.10;29.90
66928;DHT22;59882;45.624;11.698;2022-10-31T12:57:06;36.50;30.00
66928;DHT22;59882;45.624;11.698;2022-10-31T12:59:43;36.60;31.20
66928;DHT22;59882;45.624;11.698;2022-10-31T13:02:27;36.50;29.60
66928;DHT22;59882;45.624;11.698;2022-10-31T13:05:33;36.50;31.40
66928;DHT22;59882;45.624;11.698;2022-10-31T13:08:01;36.50;30.40
66928;DHT22;59882;45.624;11.698;2022-10-31T13:16:50;35.60;31.60
66928;DHT22;59882;45.624;11.698;2022-10-31T13:24:41;35.00;31.20
66928;DHT22;59882;45.624;11.698;2022-10-31T13:27:21;35.10;31.50
66928;DHT22;59882;45.624;11.698;2022-10-31T13:30:10;35.40;31.50
66928;DHT22;59882;45.624;11.698;2022-10-31T13:32:47;35.70;30.30
66928;DHT22;59882;45.624;11.698;2022-10-31T13:37:56;35.90;29.80
66928;DHT22;59882;45.624;11.698;2022-10-31T13:40:50;35.80;30.70
66928;DHT22;59882;45.624;11.698;2022-10-31T13:43:26;35.90;30.40
66928;DHT22;59882;45.624;11.698;2022-10-31T13:45:54;36.00;29.40
66928;DHT22;59882;45.624;11.698;2022-10-31T13:51:30;36.10;30.50
66928;DHT22;59882;45.624;11.698;2022-10-31T13:56:32;36.00;30.40
66928;DHT22;59882;45.624;11.698;2022-10-31T13:59:02;35.70;30.00
66928;DHT22;59882;45.624;11.698;2022-10-31T14:01:29;35.50;30.40
66928;DHT22;59882;45.624;11.698;2022-10-31T14:06:44;34.40;31.20
66928;DHT22;59882;45.624;11.698;2022-10-31T14:11:56;32.70;34.00
66928;DHT22;59882;45.624;11.698;2022-10-31T14:14:29;32.00;35.00
66928;DHT22;59882;45.624;11.698;2022-10-31T14:16:58;31.30;35.70
66928;DHT22;59882;45.624;11.698;2022-10-31T14:19:25;30.70;36.70
66928;DHT22;59882;45.624;11.698;2022-10-31T14:21:51;30.20;37.40
66928;DHT22;59882;45.624;11.698;2022-10-31T14:26:59;29.20;39.10
66928;DHT22;59882;45.624;11.698;2022-10-31T14:29:29;28.90;39.60
66928;DHT22;59882;45.624;11.698;2022-10-31T14:32:14;28.50;40.60
66928;DHT22;59882;45.624;11.698;2022-10-31T14:35:03;28.20;40.80
66928;DHT22;59882;45.624;11.698;2022-10-31T14:46:16;27.10;45.30
66928;DHT22;59882;45.624;11.698;2022-10-31T14:51:37;26.90;44.40
66928;DHT22;59882;45.624;11.698;2022-10-31T14:54:06;26.70;44.70
66928;DHT22;59882;45.624;11.698;2022-10-31T14:56:35;26.60;44.80
66928;DHT22;59882;45.624;11.698;2022-10-31T14:59:08;26.40;45.00
66928;DHT22;59882;45.624;11.698;2022-10-31T15:01:36;26.30;45.40
66928;DHT22;59882;45.624;11.698;2022-10-31T15:04:16;26.20;46.00
66928;DHT22;59882;45.624;11.698;2022-10-31T15:06:48;26.00;46.50
66928;DHT22;59882;45.624;11.698;2022-10-31T15:09:26;25.90;46.50
66928;DHT22;59882;45.624;11.698;2022-10-31T15:11:52;25.80;47.00
66928;DHT22;59882;45.624;11.698;2022-10-31T15:14:29;25.70;47.30
66928;DHT22;59882;45.624;11.698;2022-10-31T15:16:59;25.50;47.90
66928;DHT22;59882;45.624;11.698;2022-10-31T15:19:29;25.40;48.30
66928;DHT22;59882;45.624;11.698;2022-10-31T15:21:56;25.40;48.70
66928;DHT22;59882;45.624;11.698;2022-10-31T15:24:26;25.40;48.90
66928;DHT22;59882;45.624;11.698;2022-10-31T15:26:55;25.30;49.90
66928;DHT22;59882;45.624;11.698;2022-10-31T15:29:25;25.20;50.60
66928;DHT22;59882;45.624;11.698;2022-10-31T15:34:44;25.00;51.60
66928;DHT22;59882;45.624;11.698;2022-10-31T15:37:28;24.90;51.50
66928;DHT22;59882;45.624;11.698;2022-10-31T15:39:54;24.70;51.80
66928;DHT22;59882;45.624;11.698;2022-10-31T15:42:24;24.50;52.20
66928;DHT22;59882;45.624;11.698;2022-10-31T15:44:57;24.50;51.90
66928;DHT22;59882;45.624;11.698;2022-10-31T15:47:24;24.40;52.20
66928;DHT22;59882;45.624;11.698;2022-10-31T15:49:55;24.30;52.30
66928;DHT22;59882;45.624;11.698;2022-10-31T15:52:40;24.20;52.60
66928;DHT22;59882;45.624;11.698;2022-10-31T15:57:44;23.90;54.70
66928;DHT22;59882;45.624;11.698;2022-10-31T16:00:31;23.70;54.30
66928;DHT22;59882;45.624;11.698;2022-10-31T16:10:52;22.90;57.30
66928;DHT22;59882;45.624;11.698;2022-10-31T16:13:21;22.80;57.80
66928;DHT22;59882;45.624;11.698;2022-10-31T16:15:52;22.60;57.20
66928;DHT22;59882;45.624;11.698;2022-10-31T16:18:19;22.50;58.70
66928;DHT22;59882;45.624;11.698;2022-10-31T16:20:50;22.40;58.00
66928;DHT22;59882;45.624;11.698;2022-10-31T16:23:18;22.30;58.10
66928;DHT22;59882;45.624;11.698;2022-10-31T16:25:44;22.20;58.30
66928;DHT22;59882;45.624;11.698;2022-10-31T16:28:16;22.10;60.10
66928;DHT22;59882;45.624;11.698;2022-10-31T16:30:46;21.90;60.90
66928;DHT22;59882;45.624;11.698;2022-10-31T16:33:32;21.80;61.20
66928;DHT22;59882;45.624;11.698;2022-10-31T16:36:44;21.70;62.10
66928;DHT22;59882;45.624;11.698;2022-10-31T16:39:10;21.50;62.30
66928;DHT22;59882;45.624;11.698;2022-10-31T16:41:40;21.40;61.30
66928;DHT22;59882;45.624;11.698;2022-10-31T16:44:23;21.40;61.50
66928;DHT22;59882;45.624;11.698;2022-10-31T16:47:14;21.20;62.80
66928;DHT22;59882;45.624;11.698;2022-10-31T16:49:40;21.20;63.30
66928;DHT22;59882;45.624;11.698;2022-10-31T16:52:05;21.10;63.60
66928;DHT22;59882;45.624;11.698;2022-10-31T16:54:31;21.00;63.80
66928;DHT22;59882;45.624;11.698;2022-10-31T16:57:02;20.90;64.50
66928;DHT22;59882;45.624;11.698;2022-10-31T16:59:29;20.90;64.90
66928;DHT22;59882;45.624;11.698;2022-10-31T17:01:55;20.80;65.00
66928;DHT22;59882;45.624;11.698;2022-10-31T17:04:21;20.70;63.90
66928;DHT22;59882;45.624;11.698;2022-10-31T17:06:47;20.60;63.90
66928;DHT22;59882;45.624;11.698;2022-10-31T17:09:13;20.60;65.60
66928;DHT22;59882;45.624;11.698;2022-10-31T17:11:46;20.50;64.60
66928;DHT22;59882;45.624;11.698;2022-10-31T17:14:13;20.40;65.20
66928;DHT22;59882;45.624;11.698;2022-10-31T17:16:38;20.40;66.10
66928;DHT22;59882;45.624;11.698;2022-10-31T17:19:04;20.30;66.50
66928;DHT22;59882;45.624;11.698;2022-10-31T17:21:30;20.30;66.90
66928;DHT22;59882;45.624;11.698;2022-10-31T17:23:55;20.20;66.80
66928;DHT22;59882;45.624;11.698;2022-10-31T17:26:21;20.10;67.40
66928;DHT22;59882;45.624;11.698;2022-10-31T17:28:47;20.10;67.80
66928;DHT22;59882;45.624;11.698;2022-10-31T17:31:25;19.90;68.20
66928;DHT22;59882;45.624;11.698;2022-10-31T17:33:54;19.80;68.70
66928;DHT22;59882;45.624;11.698;2022-10-31T17:36:21;19.70;68.30
66928;DHT22;59882;45.624;11.698;2022-10-31T17:38:46;19.70;68.40
66928;DHT22;59882;45.624;11.698;2022-10-31T17:41:12;19.60;68.60
66928;DHT22;59882;45.624;11.698;2022-10-31T17:43:38;19.50;68.70
66928;DHT22;59882;45.624;11.698;2022-10-31T17:46:04;19.40;68.90
66928;DHT22;59882;45.624;11.698;2022-10-31T17:48:30;19.40;68.50
66928;DHT22;59882;45.624;11.698;2022-10-31T17:51:01;19.40;68.70
66928;DHT22;59882;45.624;11.698;2022-10-31T17:53:28;19.30;68.90
66928;DHT22;59882;45.624;11.698;2022-10-31T17:56:06;19.30;69.10
66928;DHT22;59882;45.624;11.698;2022-10-31T17:58:33;19.20;69.00
66928;DHT22;59882;45.624;11.698;2022-10-31T18:00:59;19.20;68.20
66928;DHT22;59882;45.624;11.698;2022-10-31T18:03:26;19.20;68.60